Time;durP1;ratioP1;P1;durP2;ratioP2;P2;SDS_P1;SDS_P2;PMS_P1;PMS_P2;Temp;Humidity;BMP_temperature;BMP_pressure;BME280_temperature;BME280_humidity;BME280_pressure;Samples;Min_cycle;Max_cycle;Signal;HPM_P1;HPM_P2
2021/05/03 00:00:52;;;;;;;3.22;1.98;;;4.50;99.90;;;;;;5065126;28;20044;-74
2021/05/03 00:03:18;;;;;;;3.25;1.15;;;4.40;99.90;;;;;;5064545;28;20025;-76
2021/05/03 00:05:48;;;;;;;2.03;1.40;;;4.40;99.90;;;;;;5064955;28;20888;-75
2021/05/03 00:08:13;;;;;;;2.22;1.15;;;4.40;99.90;;;;;;5064878;28;20020;-74
2021/05/03 00:10:39;;;;;;;2.42;1.27;;;4.40;99.90;;;;;;5064634;28;20059;-75
2021/05/03 00:13:05;;;;;;;2.60;1.45;;;4.40;99.90;;;;;;5063413;28;20097;-77
2021/05/03 00:15:30;;;;;;;2.30;1.23;;;4.40;99.90;;;;;;5063261;28;20032;-76
2021/05/03 00:17:56;;;;;;;13.90;1.67;;;4.40;99.90;;;;;;5063273;28;20029;-77
2021/05/03 00:20:21;;;;;;;3.60;1.15;;;4.40;99.90;;;;;;5065006;28;20044;-75
2021/05/03 00:22:47;;;;;;;1.70;1.08;;;4.30;99.90;;;;;;5064692;28;20029;-76
2021/05/03 00:25:13;;;;;;;1.50;0.85;;;4.30;99.90;;;;;;5064257;28;20029;-76
2021/05/03 00:27:39;;;;;;;1.60;1.10;;;4.30;99.90;;;;;;5063346;28;20043;-75
2021/05/03 00:30:05;;;;;;;2.83;1.52;;;4.30;99.90;;;;;;5064428;28;20107;-76
2021/05/03 00:32:31;;;;;;;2.33;1.17;;;4.20;99.90;;;;;;5064477;28;20025;-76
2021/05/03 00:34:57;;;;;;;4.80;1.40;;;4.20;99.90;;;;;;5063262;28;20095;-75
2021/05/03 00:37:23;;;;;;;2.38;1.27;;;4.20;99.90;;;;;;5063227;28;20059;-75
2021/05/03 00:39:49;;;;;;;9.65;1.65;;;4.20;99.90;;;;;;5064294;28;20112;-77
2021/05/03 00:42:15;;;;;;;5.38;1.67;;;4.20;99.90;;;;;;5064413;28;20025;-76
2021/05/03 00:44:41;;;;;;;1.88;0.88;;;4.10;99.90;;;;;;5064296;28;20025;-75
2021/05/03 00:47:06;;;;;;;2.13;1.45;;;4.10;99.90;;;;;;5063127;28;20033;-76
2021/05/03 00:49:32;;;;;;;1.95;1.10;;;4.10;99.90;;;;;;5063068;28;20033;-75
2021/05/03 00:51:58;;;;;;;2.15;1.20;;;4.10;99.90;;;;;;5062834;28;20025;-76
2021/05/03 00:54:23;;;;;;;3.90;2.17;;;4.10;99.90;;;;;;5063146;28;20041;-76
2021/05/03 00:56:49;;;;;;;2.33;1.40;;;4.20;99.90;;;;;;5064368;28;20033;-74
2021/05/03 00:59:15;;;;;;;4.78;1.50;;;4.10;99.90;;;;;;5062591;28;20037;-75
2021/05/03 01:01:40;;;;;;;3.20;1.15;;;4.10;99.90;;;;;;5064455;28;20089;-73
2021/05/03 01:04:06;;;;;;;6.78;1.20;;;4.10;99.90;;;;;;5062951;28;20024;-75
2021/05/03 01:06:32;;;;;;;1.10;0.93;;;4.10;99.90;;;;;;5062728;28;20025;-77
2021/05/03 01:08:59;;;;;;;3.75;1.50;;;4.10;99.90;;;;;;5063201;28;20029;-75
2021/05/03 01:11:25;;;;;;;2.63;1.20;;;4.10;99.90;;;;;;5064258;28;20053;-75
2021/05/03 01:13:51;;;;;;;4.30;1.60;;;4.10;99.90;;;;;;5064041;28;20089;-75
2021/05/03 01:16:17;;;;;;;1.38;0.75;;;4.20;99.90;;;;;;5063202;28;20049;-74
2021/05/03 01:18:42;;;;;;;3.78;1.30;;;4.10;99.90;;;;;;5064354;28;20548;-74
2021/05/03 01:21:08;;;;;;;4.05;0.82;;;4.10;99.90;;;;;;5064068;28;20041;-72
2021/05/03 01:23:34;;;;;;;3.15;1.77;;;4.10;99.90;;;;;;5062719;28;20051;-76
2021/05/03 01:26:00;;;;;;;8.80;1.10;;;4.10;99.90;;;;;;5062547;28;20385;-78
2021/05/03 01:28:27;;;;;;;5.25;1.08;;;4.10;99.90;;;;;;5064112;28;20021;-75
2021/05/03 01:30:53;;;;;;;4.72;1.05;;;4.10;99.90;;;;;;5063925;28;20040;-74
2021/05/03 01:33:19;;;;;;;1.60;1.02;;;4.10;99.90;;;;;;5063742;28;20029;-74
2021/05/03 01:35:48;;;;;;;2.40;0.73;;;4.10;99.90;;;;;;5063956;28;20041;-77
2021/05/03 01:38:15;;;;;;;4.28;1.33;;;4.00;99.90;;;;;;5065797;28;20021;-77
2021/05/03 01:40:42;;;;;;;2.45;1.23;;;4.00;99.90;;;;;;5067523;28;20029;-78
2021/05/03 01:43:23;;;;;;;1.83;1.00;;;4.00;99.90;;;;;;5067622;28;20029;-76
2021/05/03 01:45:51;;;;;;;1.15;0.80;;;4.00;99.90;;;;;;5067765;28;20025;-77
2021/05/03 01:48:19;;;;;;;1.55;0.70;;;4.00;99.90;;;;;;5066016;28;20025;-76
2021/05/03 01:50:46;;;;;;;1.65;0.77;;;4.00;99.90;;;;;;5067788;28;20021;-76
2021/05/03 01:53:12;;;;;;;2.10;1.20;;;4.00;99.90;;;;;;5067519;28;20029;-75
2021/05/03 01:55:38;;;;;;;2.83;1.50;;;4.00;99.90;;;;;;5067186;28;20036;-78
2021/05/03 01:58:06;;;;;;;2.03;1.02;;;3.90;99.90;;;;;;5065914;28;20036;-78
2021/05/03 02:00:33;;;;;;;1.73;1.13;;;4.00;99.90;;;;;;5066077;28;20026;-76
2021/05/03 02:02:58;;;;;;;1.90;1.10;;;3.90;99.90;;;;;;5065887;28;20065;-77
2021/05/03 02:05:26;;;;;;;2.53;1.38;;;3.90;99.90;;;;;;5066034;28;20036;-76
2021/05/03 02:08:10;;;;;;;3.72;1.02;;;3.90;99.90;;;;;;5065840;28;20029;-76
2021/05/03 02:10:37;;;;;;;1.60;1.02;;;3.90;99.90;;;;;;5065519;28;20037;-76
2021/05/03 02:13:03;;;;;;;12.13;1.52;;;3.90;99.90;;;;;;5066941;28;20025;-76
2021/05/03 02:15:30;;;;;;;1.50;0.80;;;3.90;99.90;;;;;;5065568;28;20047;-77
2021/05/03 02:17:56;;;;;;;4.70;1.30;;;3.90;99.90;;;;;;5065715;28;20029;-78
2021/05/03 02:20:22;;;;;;;2.22;1.30;;;3.90;99.90;;;;;;5067007;28;20025;-76
2021/05/03 02:22:48;;;;;;;16.85;1.33;;;3.90;99.90;;;;;;5066571;28;20048;-76
2021/05/03 02:25:14;;;;;;;2.63;1.48;;;3.90;99.90;;;;;;5065601;28;20151;-76
2021/05/03 02:27:40;;;;;;;2.55;1.50;;;3.90;99.90;;;;;;5065589;28;20547;-76
2021/05/03 02:30:07;;;;;;;2.88;0.90;;;3.90;99.90;;;;;;5066403;28;20029;-76
2021/05/03 02:32:35;;;;;;;2.65;1.15;;;3.90;99.90;;;;;;5066531;28;20025;-76
2021/05/03 02:35:06;;;;;;;4.57;1.38;;;3.90;99.90;;;;;;5065033;28;20045;-77
2021/05/03 02:37:32;;;;;;;3.30;1.27;;;3.90;99.90;;;;;;5066200;28;20029;-78
2021/05/03 02:39:58;;;;;;;3.85;1.77;;;3.80;99.90;;;;;;5066682;28;20027;-76
2021/05/03 02:42:24;;;;;;;2.15;1.45;;;3.80;99.90;;;;;;5066628;28;20041;-75
2021/05/03 02:44:50;;;;;;;2.03;1.27;;;3.80;99.90;;;;;;5066275;28;20068;-75
2021/05/03 02:47:16;;;;;;;6.40;1.70;;;3.80;99.90;;;;;;5065126;28;20025;-75
2021/05/03 02:49:42;;;;;;;4.10;2.05;;;3.80;99.90;;;;;;5064553;28;20555;-76
2021/05/03 02:52:07;;;;;;;3.70;2.05;;;3.80;99.90;;;;;;5066011;28;20037;-76
2021/05/03 02:54:33;;;;;;;4.10;1.85;;;3.80;99.90;;;;;;5064939;28;20041;-75
2021/05/03 02:56:59;;;;;;;3.53;2.10;;;3.80;99.90;;;;;;5064843;28;20031;-77
2021/05/03 02:59:24;;;;;;;4.20;1.85;;;3.80;99.90;;;;;;5064714;28;20029;-76
2021/05/03 03:01:50;;;;;;;3.45;2.00;;;3.80;99.90;;;;;;5066164;28;20040;-75
2021/05/03 03:04:16;;;;;;;8.60;2.25;;;3.80;99.90;;;;;;5064611;28;20088;-75
2021/05/03 03:06:43;;;;;;;4.13;1.50;;;3.80;99.90;;;;;;5064549;28;20393;-74
2021/05/03 03:09:09;;;;;;;3.42;1.52;;;3.70;99.90;;;;;;5064685;28;20033;-75
2021/05/03 03:11:35;;;;;;;3.30;1.95;;;3.80;99.90;;;;;;5064110;28;20029;-76
2021/05/03 03:14:02;;;;;;;5.80;2.40;;;3.70;99.90;;;;;;5065854;28;20029;-76
2021/05/03 03:16:28;;;;;;;4.35;2.45;;;3.70;99.90;;;;;;5065955;28;20055;-76
2021/05/03 03:18:58;;;;;;;4.68;2.17;;;3.70;99.90;;;;;;5064264;28;20565;-75
2021/05/03 03:21:24;;;;;;;1.88;1.35;;;3.70;99.90;;;;;;5064838;28;20067;-76
2021/05/03 03:23:51;;;;;;;4.30;2.38;;;3.70;99.90;;;;;;5065598;28;20025;-76
2021/05/03 03:26:17;;;;;;;2.97;1.63;;;3.70;99.90;;;;;;5065297;28;20033;-76
2021/05/03 03:28:43;;;;;;;3.33;2.00;;;3.70;99.90;;;;;;5069026;28;20096;-76
2021/05/03 03:31:08;;;;;;;4.32;2.20;;;3.70;99.90;;;;;;5084000;28;20029;-75
2021/05/03 03:33:34;;;;;;;7.72;2.40;;;3.70;99.90;;;;;;5085229;28;20372;-75
2021/05/03 03:36:00;;;;;;;4.05;2.22;;;3.70;99.90;;;;;;5084684;28;20037;-74
2021/05/03 03:38:25;;;;;;;4.50;1.90;;;3.70;99.90;;;;;;5085066;28;20056;-76
2021/05/03 03:40:51;;;;;;;5.25;2.08;;;3.60;99.90;;;;;;5084061;28;20036;-75
2021/05/03 03:43:17;;;;;;;4.90;2.42;;;3.60;99.90;;;;;;5083994;28;20029;-75
2021/05/03 03:45:42;;;;;;;6.18;2.50;;;3.60;99.90;;;;;;5083833;28;20029;-75
2021/05/03 03:48:08;;;;;;;6.72;2.78;;;3.60;99.90;;;;;;5085072;28;20032;-74
2021/05/03 03:50:34;;;;;;;3.13;1.98;;;3.70;99.90;;;;;;5085202;28;20070;-75
2021/05/03 03:52:59;;;;;;;7.38;2.00;;;3.60;99.90;;;;;;5085047;28;20029;-74
2021/05/03 03:55:28;;;;;;;4.53;2.53;;;3.60;99.90;;;;;;5085150;28;20036;-75
2021/05/03 03:57:54;;;;;;;6.82;3.25;;;3.60;99.90;;;;;;5085442;28;20491;-75
2021/05/03 04:00:21;;;;;;;6.80;2.85;;;3.60;99.90;;;;;;5084218;28;20033;-76
2021/05/03 04:02:47;;;;;;;4.85;2.47;;;3.60;99.90;;;;;;5084798;28;20032;-75
2021/05/03 04:10:45;;;;;;;5.72;3.35;;;3.60;99.90;;;;;;5085252;28;20040;-74
2021/05/03 04:21:13;;;;;;;4.72;2.28;;;3.60;99.90;;;;;;5071590;28;19911;-73
2021/05/03 04:24:06;;;;;;;4.55;2.30;;;3.60;99.90;;;;;;5063366;28;20032;-71
2021/05/03 04:26:32;;;;;;;7.57;2.78;;;3.60;99.90;;;;;;5072528;28;20459;-73
2021/05/03 04:28:57;;;;;;;6.43;2.75;;;3.60;99.90;;;;;;5083258;28;20035;-73
2021/05/03 04:31:24;;;;;;;5.68;2.40;;;3.60;99.90;;;;;;5063564;28;20093;-73
2021/05/03 04:33:51;;;;;;;6.07;2.42;;;3.70;99.90;;;;;;5062918;28;20059;-73
2021/05/03 04:36:17;;;;;;;4.70;1.90;;;3.80;99.90;;;;;;5063085;28;20064;-74
2021/05/03 04:38:43;;;;;;;4.65;2.50;;;3.80;99.90;;;;;;5064530;28;20026;-73
2021/05/03 04:41:08;;;;;;;8.30;3.33;;;3.90;99.90;;;;;;5064286;28;20028;-74
2021/05/03 04:43:35;;;;;;;5.68;2.42;;;3.90;99.90;;;;;;5063062;28;20025;-74
2021/05/03 04:46:01;;;;;;;5.00;2.55;;;4.00;99.90;;;;;;5064657;28;20024;-71
2021/05/03 04:48:27;;;;;;;11.57;3.03;;;4.00;99.90;;;;;;5064344;28;20048;-74
2021/05/03 04:50:55;;;;;;;7.00;3.17;;;4.10;99.90;;;;;;5063597;28;20098;-72
2021/05/03 04:53:21;;;;;;;7.35;2.95;;;4.00;99.90;;;;;;5063648;28;20068;-73
2021/05/03 04:55:47;;;;;;;7.95;2.83;;;4.00;99.90;;;;;;5064538;28;20037;-72
2021/05/03 04:58:13;;;;;;;4.55;2.55;;;4.10;99.90;;;;;;5064830;28;20055;-74
2021/05/03 05:00:38;;;;;;;5.05;2.40;;;4.10;99.90;;;;;;5064664;28;20033;-71
2021/05/03 05:03:04;;;;;;;10.73;2.72;;;4.10;99.90;;;;;;5064457;28;20029;-73
2021/05/03 05:05:30;;;;;;;2.75;1.73;;;4.10;99.90;;;;;;5064643;28;20040;-75
2021/05/03 05:07:56;;;;;;;7.93;2.83;;;4.10;99.90;;;;;;5064433;28;20029;-73
2021/05/03 05:10:22;;;;;;;3.80;2.10;;;4.20;99.90;;;;;;5064324;28;20029;-73
2021/05/03 05:12:49;;;;;;;4.50;2.05;;;4.20;99.90;;;;;;5065978;28;20116;-73
2021/05/03 05:15:15;;;;;;;7.50;2.30;;;4.20;99.90;;;;;;5067922;28;20029;-74
2021/05/03 05:17:41;;;;;;;5.57;2.65;;;4.30;99.90;;;;;;5068171;28;20143;-73
2021/05/03 05:20:07;;;;;;;4.38;2.45;;;4.40;99.90;;;;;;5068253;28;20032;-72
2021/05/03 05:22:33;;;;;;;5.95;2.65;;;4.50;99.90;;;;;;5074702;28;20032;-74
2021/05/03 05:25:02;;;;;;;8.68;3.13;;;4.50;99.90;;;;;;5079392;28;20048;-73
2021/05/03 05:27:28;;;;;;;4.28;2.08;;;4.60;99.90;;;;;;5067845;28;20090;-75
2021/05/03 05:29:53;;;;;;;4.65;2.47;;;4.80;99.90;;;;;;5071931;28;20053;-73
2021/05/03 05:32:19;;;;;;;3.65;2.13;;;4.80;99.90;;;;;;5080641;28;20036;-72
2021/05/03 05:34:44;;;;;;;5.50;2.65;;;4.80;99.90;;;;;;5068929;28;20083;-74
2021/05/03 05:37:11;;;;;;;8.18;2.13;;;5.00;99.90;;;;;;5067507;28;20029;-74
2021/05/03 05:39:37;;;;;;;13.48;2.33;;;5.10;99.90;;;;;;5067750;28;20087;-72
2021/05/03 05:42:03;;;;;;;5.50;2.03;;;5.10;99.90;;;;;;5066356;28;20048;-74
2021/05/03 05:44:29;;;;;;;3.80;2.20;;;5.20;99.90;;;;;;5067621;28;20036;-73
2021/05/03 05:46:55;;;;;;;5.68;2.55;;;5.30;99.90;;;;;;5067413;28;20103;-75
2021/05/03 05:49:21;;;;;;;9.75;2.35;;;5.40;99.90;;;;;;5065962;28;20055;-75
2021/05/03 05:51:46;;;;;;;4.15;2.25;;;5.50;99.90;;;;;;5067481;28;20032;-73
2021/05/03 05:54:12;;;;;;;6.32;2.38;;;5.50;99.90;;;;;;5066210;28;20071;-72
2021/05/03 05:56:44;;;;;;;3.95;1.45;;;5.70;99.90;;;;;;5067170;28;20025;-75
2021/05/03 05:59:10;;;;;;;4.15;1.90;;;5.60;99.90;;;;;;5066029;28;20096;-75
2021/05/03 06:01:35;;;;;;;3.58;2.30;;;5.60;99.90;;;;;;5067304;28;20029;-74
2021/05/03 06:04:01;;;;;;;3.63;1.88;;;5.60;99.90;;;;;;5066873;28;20025;-70
2021/05/03 06:06:27;;;;;;;9.15;2.55;;;5.70;99.90;;;;;;5066163;28;20048;-73
2021/05/03 06:08:53;;;;;;;6.25;2.33;;;5.70;99.90;;;;;;5065979;28;20064;-73
2021/05/03 06:11:19;;;;;;;3.70;1.88;;;5.70;99.90;;;;;;5065352;28;20838;-72
2021/05/03 06:13:44;;;;;;;5.05;2.08;;;5.80;99.90;;;;;;5082366;28;20081;-72
2021/05/03 06:16:10;;;;;;;4.47;1.95;;;5.90;99.90;;;;;;5066965;28;20029;-71
2021/05/03 06:18:36;;;;;;;4.63;2.75;;;5.80;99.90;;;;;;5066732;28;20025;-73
2021/05/03 06:21:02;;;;;;;4.97;2.67;;;5.90;99.90;;;;;;5067236;28;20024;-73
2021/05/03 06:23:28;;;;;;;4.63;2.25;;;5.90;99.90;;;;;;5066115;28;20079;-73
2021/05/03 06:25:53;;;;;;;4.53;2.45;;;5.90;99.90;;;;;;5066620;28;20029;-74
2021/05/03 06:28:21;;;;;;;5.95;2.38;;;5.90;99.90;;;;;;5065517;28;20029;-73
2021/05/03 06:30:46;;;;;;;4.35;2.05;;;5.90;99.90;;;;;;5066171;28;20064;-73
2021/05/03 06:33:12;;;;;;;6.32;2.58;;;6.00;99.90;;;;;;5066252;28;20016;-73
2021/05/03 06:35:38;;;;;;;3.58;1.83;;;6.00;99.90;;;;;;5065142;28;20064;-71
2021/05/03 06:38:06;;;;;;;6.18;1.88;;;6.00;99.90;;;;;;5064935;28;20092;-72
2021/05/03 06:40:32;;;;;;;3.22;2.17;;;6.10;99.90;;;;;;5066379;28;20032;-70
2021/05/03 06:42:58;;;;;;;11.63;2.40;;;6.20;99.90;;;;;;5066469;28;20021;-71
2021/05/03 06:45:24;;;;;;;5.53;2.42;;;6.30;99.90;;;;;;5065002;28;20033;-73
2021/05/03 06:47:50;;;;;;;4.18;2.40;;;6.30;99.90;;;;;;5064873;28;20032;-71
2021/05/03 06:50:17;;;;;;;7.57;2.72;;;6.30;99.90;;;;;;5065009;28;20025;-74
2021/05/03 06:52:44;;;;;;;5.35;2.83;;;6.30;99.90;;;;;;5064657;28;20032;-74
2021/05/03 06:55:12;;;;;;;3.05;1.75;;;6.30;99.90;;;;;;5065780;28;20037;-75
2021/05/03 06:57:37;;;;;;;7.15;2.35;;;6.30;99.90;;;;;;5077221;28;20025;-73
2021/05/03 07:00:06;;;;;;;5.85;1.73;;;6.30;99.90;;;;;;5074937;28;20473;-71
2021/05/03 07:02:32;;;;;;;7.70;2.53;;;6.30;99.90;;;;;;5075181;28;20020;-71
2021/05/03 07:04:58;;;;;;;4.28;2.28;;;6.40;99.90;;;;;;5066059;28;20032;-74
2021/05/03 07:07:24;;;;;;;5.35;2.20;;;6.40;99.90;;;;;;5066090;28;20033;-70
2021/05/03 07:09:49;;;;;;;3.90;2.13;;;6.40;99.90;;;;;;5066006;28;20132;-71
2021/05/03 07:12:18;;;;;;;4.60;2.33;;;6.30;99.90;;;;;;5064367;28;20548;-71
2021/05/03 07:14:44;;;;;;;6.07;2.72;;;6.40;99.90;;;;;;5065831;28;20036;-70
2021/05/03 07:17:09;;;;;;;6.75;2.80;;;6.20;99.90;;;;;;5065862;28;20048;-70
2021/05/03 07:19:36;;;;;;;4.80;2.47;;;6.20;99.90;;;;;;5074621;28;20040;-70
2021/05/03 07:22:04;;;;;;;4.70;2.28;;;6.10;99.90;;;;;;5085720;28;20025;-71
2021/05/03 07:24:30;;;;;;;7.28;3.13;;;6.10;99.90;;;;;;5084195;28;20071;-69
2021/05/03 07:26:56;;;;;;;3.92;2.40;;;6.00;99.90;;;;;;5084853;28;20039;-69
2021/05/03 07:29:21;;;;;;;4.95;2.47;;;5.90;99.90;;;;;;5083732;28;20136;-70
2021/05/03 07:31:47;;;;;;;3.70;2.40;;;5.90;99.90;;;;;;5084503;28;20075;-72
2021/05/03 07:34:14;;;;;;;13.15;2.65;;;5.80;99.90;;;;;;5081483;28;20400;-73
2021/05/03 07:36:40;;;;;;;4.90;2.40;;;5.70;99.90;;;;;;5083854;28;20056;-73
2021/05/03 07:39:06;;;;;;;8.10;3.42;;;5.70;99.90;;;;;;5084987;28;20021;-71
2021/05/03 07:41:33;;;;;;;7.70;3.60;;;5.70;99.90;;;;;;5084855;28;20029;-73
2021/05/03 07:44:00;;;;;;;8.60;3.58;;;5.70;99.90;;;;;;5084780;28;20071;-73
2021/05/03 07:46:27;;;;;;;6.95;3.75;;;5.70;99.90;;;;;;5085583;28;20024;-73
2021/05/03 07:48:54;;;;;;;7.90;4.53;;;5.60;99.90;;;;;;5083966;28;20032;-72
2021/05/03 07:51:20;;;;;;;6.70;4.10;;;5.60;99.90;;;;;;5083828;28;20029;-74
2021/05/03 07:53:46;;;;;;;5.90;3.58;;;5.50;99.90;;;;;;5083732;28;20060;-73
2021/05/03 07:56:15;;;;;;;6.93;3.90;;;5.50;99.90;;;;;;5083701;28;20040;-74
2021/05/03 07:58:44;;;;;;;7.30;3.47;;;5.50;99.90;;;;;;5073139;28;20028;-75
2021/05/03 08:01:10;;;;;;;8.70;3.75;;;5.40;99.90;;;;;;5062911;28;20163;-73
2021/05/03 08:03:38;;;;;;;6.90;3.75;;;5.40;99.90;;;;;;5064607;28;20052;-72
2021/05/03 08:06:12;;;;;;;10.95;4.38;;;5.30;99.90;;;;;;5064576;28;20044;-71
2021/05/03 08:08:38;;;;;;;7.27;3.80;;;5.30;99.90;;;;;;5074468;28;20029;-71
2021/05/03 08:11:04;;;;;;;7.43;3.60;;;5.40;99.90;;;;;;5084315;28;20358;-73
2021/05/03 08:13:30;;;;;;;6.10;3.97;;;5.30;99.90;;;;;;5076601;28;20033;-72
2021/05/03 08:16:01;;;;;;;8.73;4.53;;;5.30;99.90;;;;;;5072224;28;20094;-72
2021/05/03 08:18:27;;;;;;;5.38;3.85;;;5.30;99.90;;;;;;5074360;28;20028;-71
2021/05/03 08:20:54;;;;;;;8.60;4.18;;;5.40;99.90;;;;;;5073323;28;20036;-73
2021/05/03 08:23:21;;;;;;;5.85;3.53;;;5.30;99.90;;;;;;5084722;28;20055;-72
2021/05/03 08:25:49;;;;;;;11.38;5.22;;;5.20;99.90;;;;;;5082717;28;20067;-72
2021/05/03 08:28:16;;;;;;;9.70;4.75;;;5.10;99.90;;;;;;5077117;28;20035;-74
2021/05/03 08:30:42;;;;;;;11.77;5.63;;;5.10;99.90;;;;;;5076571;28;20029;-74
2021/05/03 08:33:08;;;;;;;10.80;5.25;;;5.10;99.90;;;;;;5066679;28;20104;-71
2021/05/03 08:35:34;;;;;;;14.88;6.30;;;5.10;99.90;;;;;;5075095;28;20076;-72
2021/05/03 08:38:00;;;;;;;9.88;5.13;;;5.30;99.90;;;;;;5063123;28;20047;-73
2021/05/03 08:40:28;;;;;;;10.82;5.70;;;5.30;99.90;;;;;;5063794;28;20091;-73
2021/05/03 08:42:55;;;;;;;10.35;5.20;;;5.50;99.90;;;;;;5063496;28;20131;-72
2021/05/03 08:45:21;;;;;;;13.85;5.60;;;5.60;99.90;;;;;;5062381;28;20068;-73
2021/05/03 08:48:36;;;;;;;11.52;5.85;;;5.80;99.90;;;;;;5063336;28;20690;-73
2021/05/03 08:53:42;;;;;;;10.77;5.82;;;5.90;99.90;;;;;;5022075;28;20040;-71
2021/05/03 08:56:08;;;;;;;9.27;5.97;;;6.00;99.90;;;;;;5066487;28;20044;-72
2021/05/03 08:58:40;;;;;;;10.60;5.53;;;6.20;99.90;;;;;;5073788;28;20048;-72
2021/05/03 09:01:07;;;;;;;9.10;5.43;;;6.30;99.90;;;;;;5071636;28;20078;-74
2021/05/03 09:03:34;;;;;;;12.55;5.20;;;6.40;99.90;;;;;;5075476;28;20028;-70
2021/05/03 09:06:04;;;;;;;11.07;5.80;;;6.50;99.90;;;;;;5063996;28;20033;-70
2021/05/03 09:08:32;;;;;;;13.75;5.53;;;6.60;99.90;;;;;;5063731;28;20021;-71
2021/05/03 09:10:59;;;;;;;11.23;5.95;;;6.70;99.90;;;;;;5062011;28;20040;-75
2021/05/03 09:13:30;;;;;;;11.65;5.88;;;6.70;99.90;;;;;;5063059;28;20029;-75
2021/05/03 09:16:16;;;;;;;11.32;5.75;;;6.90;99.90;;;;;;5063116;28;20045;-75
2021/05/03 09:18:42;;;;;;;10.48;5.25;;;7.00;99.90;;;;;;5060898;28;20545;-69
2021/05/03 09:21:32;;;;;;;11.25;5.68;;;7.00;99.90;;;;;;5061972;28;20033;-70
2021/05/03 09:24:10;;;;;;;11.55;5.65;;;7.00;99.90;;;;;;5064080;28;20104;-72
2021/05/03 09:26:44;;;;;;;8.05;5.15;;;7.10;99.90;;;;;;5062677;28;20021;-73
2021/05/03 09:29:30;;;;;;;8.30;5.32;;;7.00;99.90;;;;;;5063638;28;20056;-72
2021/05/03 09:31:56;;;;;;;17.20;5.75;;;6.90;99.90;;;;;;5064050;28;20059;-74
2021/05/03 09:34:33;;;;;;;13.40;6.45;;;6.90;99.90;;;;;;5063175;28;20048;-74
2021/05/03 09:37:35;;;;;;;12.90;5.60;;;6.90;99.90;;;;;;5063669;28;20159;-74
2021/05/03 09:40:03;;;;;;;17.05;8.25;;;6.80;99.90;;;;;;5063437;28;20044;-73
2021/05/03 09:42:43;;;;;;;14.07;6.40;;;6.80;99.90;;;;;;5063163;28;20029;-71
2021/05/03 09:45:15;;;;;;;17.13;7.93;;;6.70;99.90;;;;;;5063547;28;20067;-71
2021/05/03 09:47:42;;;;;;;14.50;7.45;;;6.80;99.90;;;;;;5065320;28;20047;-72
2021/05/03 09:50:30;;;;;;;14.00;6.32;;;6.90;99.90;;;;;;5077035;28;20032;-73
2021/05/03 09:53:10;;;;;;;24.20;8.98;;;7.00;99.90;;;;;;5061829;28;20489;-75
2021/05/03 09:55:42;;;;;;;17.70;8.80;;;7.00;99.90;;;;;;5078712;28;20497;-71
2021/05/03 09:58:08;;;;;;;14.77;8.95;;;7.10;99.90;;;;;;5062110;28;20025;-73
2021/05/03 10:00:39;;;;;;;12.13;6.63;;;7.10;99.90;;;;;;5082191;28;20490;-71
2021/05/03 10:03:47;;;;;;;24.65;9.73;;;7.10;99.90;;;;;;5066278;28;20024;-75
2021/05/03 10:06:16;;;;;;;18.88;10.38;;;7.10;99.90;;;;;;5067173;28;20021;-73
2021/05/03 10:08:46;;;;;;;19.63;8.77;;;7.10;99.90;;;;;;5066529;28;20077;-76
2021/05/03 10:11:15;;;;;;;15.88;8.40;;;7.10;99.90;;;;;;5066628;28;20101;-75
2021/05/03 10:13:42;;;;;;;15.43;7.78;;;7.10;99.90;;;;;;5064937;28;20040;-74
2021/05/03 10:16:10;;;;;;;14.82;7.38;;;7.10;99.90;;;;;;5065754;28;20101;-75
2021/05/03 10:18:41;;;;;;;15.95;7.97;;;7.10;99.90;;;;;;5065140;28;20021;-73
2021/05/03 10:21:10;;;;;;;20.55;8.82;;;7.10;99.90;;;;;;5065304;28;20029;-76
2021/05/03 10:23:43;;;;;;;15.43;7.63;;;7.20;99.90;;;;;;5066106;28;20057;-74
2021/05/03 10:26:09;;;;;;;29.60;9.63;;;7.30;99.90;;;;;;5065425;28;20037;-75
2021/05/03 10:28:55;;;;;;;19.92;10.00;;;7.30;99.90;;;;;;5066436;28;20025;-76
2021/05/03 10:31:21;;;;;;;21.55;11.35;;;7.40;99.90;;;;;;5076262;28;20028;-76
2021/05/03 10:33:47;;;;;;;26.83;10.88;;;7.40;99.90;;;;;;5076534;28;20049;-73
2021/05/03 10:36:35;;;;;;;24.35;11.73;;;7.30;99.90;;;;;;5066406;28;20478;-73
2021/05/03 10:39:02;;;;;;;23.60;11.07;;;7.30;99.90;;;;;;5074844;28;20029;-74
2021/05/03 10:41:33;;;;;;;22.63;10.75;;;7.30;99.90;;;;;;5066773;28;20036;-74
2021/05/03 10:44:15;;;;;;;19.88;10.43;;;7.20;99.90;;;;;;5066395;28;20025;-72
2021/05/03 10:49:22;;;;;;;24.65;12.60;;;7.20;99.90;;;;;;5070376;28;20024;-72
2021/05/03 10:52:14;;;;;;;23.77;10.50;;;7.10;99.90;;;;;;5085687;28;20024;-71
2021/05/03 10:54:50;;;;;;;26.00;12.93;;;7.10;99.90;;;;;;5070850;28;20037;-72
2021/05/03 10:57:15;;;;;;;26.23;14.18;;;7.10;99.90;;;;;;5077986;28;20043;-70
2021/05/03 10:59:44;;;;;;;29.08;13.75;;;7.10;99.90;;;;;;5077093;28;20029;-71
2021/05/03 11:02:11;;;;;;;25.38;12.40;;;7.20;99.90;;;;;;5076078;28;20025;-72
2021/05/03 11:04:39;;;;;;;34.55;13.50;;;7.40;99.90;;;;;;5077638;28;20508;-73
2021/05/03 11:07:10;;;;;;;30.63;14.35;;;7.60;99.90;;;;;;5082837;28;20024;-71
2021/05/03 11:09:39;;;;;;;29.42;14.18;;;7.90;99.90;;;;;;5065376;28;20020;-73
2021/05/03 11:12:10;;;;;;;29.35;14.18;;;8.20;99.90;;;;;;5064676;28;20086;-74
2021/05/03 11:14:37;;;;;;;27.90;13.68;;;8.40;99.90;;;;;;5065173;28;20036;-71
2021/05/03 11:17:11;;;;;;;33.78;14.57;;;8.60;99.90;;;;;;5065013;28;20040;-72
2021/05/03 11:22:25;;;;;;;30.55;13.27;;;8.80;99.90;;;;;;5085138;28;20081;-72
2021/05/03 11:24:58;;;;;;;25.45;12.70;;;8.80;99.90;;;;;;5085179;28;20024;-74
2021/05/03 11:27:48;;;;;;;28.98;12.43;;;8.90;99.90;;;;;;5084797;28;20100;-73
2021/05/03 11:30:35;;;;;;;28.30;13.73;;;9.00;99.90;;;;;;5064859;28;20397;-72
2021/05/03 11:33:23;;;;;;;28.00;13.18;;;9.20;99.90;;;;;;5065298;28;20067;-73
2021/05/03 11:38:36;;;;;;;24.75;12.60;;;9.50;99.90;;;;;;5065170;28;20036;-74
2021/05/03 11:46:47;;;;;;;26.92;12.15;;;9.60;99.90;;;;;;5060033;28;20056;-74
2021/05/03 11:49:15;;;;;;;21.85;10.65;;;9.40;99.90;;;;;;5063494;28;20037;-74
2021/05/03 11:51:52;;;;;;;24.50;11.95;;;9.20;99.90;;;;;;5063899;28;20033;-75
2021/05/03 11:54:38;;;;;;;23.60;12.60;;;9.10;99.90;;;;;;5063319;28;20064;-73
2021/05/03 11:57:19;;;;;;;25.30;12.75;;;9.00;99.90;;;;;;5064527;28;20089;-74
2021/05/03 11:59:46;;;;;;;25.80;12.45;;;8.90;99.90;;;;;;5064639;28;20021;-73
2021/05/03 12:02:15;;;;;;;28.88;12.32;;;8.80;99.90;;;;;;5064802;28;20127;-71
2021/05/03 12:04:42;;;;;;;23.88;13.40;;;8.60;99.90;;;;;;5076094;28;20067;-72
2021/05/03 12:07:14;;;;;;;22.10;11.43;;;8.50;99.90;;;;;;5080380;28;20079;-74
2021/05/03 12:09:45;;;;;;;27.33;12.70;;;8.30;99.90;;;;;;5063465;28;20151;-76
2021/05/03 12:12:11;;;;;;;20.98;10.38;;;8.10;99.90;;;;;;5064653;28;20056;-75
2021/05/03 12:14:44;;;;;;;16.55;9.38;;;7.90;99.90;;;;;;5065154;28;20021;-76
2021/05/03 12:17:37;;;;;;;21.13;10.30;;;7.90;99.90;;;;;;5065049;28;20029;-74
2021/05/03 12:20:10;;;;;;;21.70;10.18;;;7.80;99.90;;;;;;5072606;28;20064;-75
2021/05/03 12:22:37;;;;;;;20.95;10.10;;;7.70;99.90;;;;;;5083530;28;20028;-73
2021/05/03 12:25:10;;;;;;;17.02;9.40;;;7.60;99.90;;;;;;5082293;28;20033;-74
2021/05/03 12:27:38;;;;;;;19.80;9.73;;;7.50;99.90;;;;;;5081559;28;20025;-75
2021/05/03 12:30:06;;;;;;;19.85;9.60;;;7.50;99.90;;;;;;5082173;28;20374;-74
2021/05/03 12:32:39;;;;;;;18.98;9.23;;;7.60;99.90;;;;;;5083275;28;20059;-74
2021/05/03 12:35:10;;;;;;;28.92;12.60;;;7.70;99.90;;;;;;5084276;28;20056;-72
2021/05/03 12:37:36;;;;;;;27.02;11.88;;;7.90;99.90;;;;;;5084610;28;20020;-77
2021/05/03 12:40:05;;;;;;;29.90;12.05;;;8.10;99.90;;;;;;5084142;28;20053;-72
2021/05/03 12:42:34;;;;;;;19.05;10.60;;;8.30;99.90;;;;;;5084633;28;20052;-77
2021/05/03 12:45:03;;;;;;;23.08;9.57;;;8.30;99.90;;;;;;5084712;28;20028;-73
2021/05/03 12:47:48;;;;;;;18.13;9.10;;;8.30;99.90;;;;;;5084320;28;20107;-72
2021/05/03 12:50:31;;;;;;;18.40;8.63;;;8.30;99.90;;;;;;5084564;28;20029;-74
2021/05/03 12:53:12;;;;;;;14.38;7.68;;;8.30;99.90;;;;;;5083482;28;20046;-73
2021/05/03 13:01:06;;;;;;;14.68;7.15;;;8.90;99.90;;;;;;5084282;28;20025;-77
2021/05/03 13:04:00;;;;;;;10.38;6.57;;;9.30;99.90;;;;;;5083218;28;20031;-75
2021/05/03 13:06:29;;;;;;;15.35;7.28;;;9.40;99.90;;;;;;5074856;28;20036;-74
2021/05/03 13:09:10;;;;;;;12.40;5.30;;;9.50;99.90;;;;;;5071683;28;20096;-74
2021/05/03 13:28:59;;;;;;;6.68;3.60;;;11.30;99.90;;;;;;5073101;28;20290;-75
2021/05/03 13:31:26;;;;;;;6.45;3.47;;;11.90;99.90;;;;;;5082249;28;20028;-75
2021/05/03 13:33:52;;;;;;;4.30;2.80;;;12.50;99.90;;;;;;5081137;28;20052;-78
2021/05/03 13:36:17;;;;;;;4.97;2.58;;;12.90;99.90;;;;;;5067918;28;20041;-79
2021/05/03 13:38:43;;;;;;;3.75;2.10;;;13.00;99.90;;;;;;5067447;28;20025;-77
2021/05/03 13:41:09;;;;;;;3.92;2.30;;;13.30;99.90;;;;;;5067016;28;20036;-75
2021/05/03 13:43:35;;;;;;;3.17;2.10;;;13.40;99.90;;;;;;5067553;28;20040;-76
2021/05/03 13:46:02;;;;;;;1.95;1.30;;;13.30;99.90;;;;;;5066249;28;20045;-75
2021/05/03 13:48:28;;;;;;;5.15;2.03;;;13.00;99.90;;;;;;5066498;28;20033;-76
2021/05/03 13:50:54;;;;;;;2.95;1.80;;;12.70;99.90;;;;;;5066694;28;20514;-79
2021/05/03 13:53:20;;;;;;;2.97;1.85;;;12.20;99.90;;;;;;5066448;28;20052;-77